地図

経路データ

SID SEASON NUMBER BASIN SUBBASIN NAME ISO_TIME NATURE LAT LON WMO_WIND WMO_PRES WMO_AGENCY TRACK_TYPE DIST2LAND LANDFALL IFLAG USA_AGENCY USA_ATCF_ID USA_LAT USA_LON USA_RECORD USA_STATUS USA_WIND USA_PRES USA_SSHS USA_R34_NE USA_R34_SE USA_R34_SW USA_R34_NW USA_R50_NE USA_R50_SE USA_R50_SW USA_R50_NW USA_R64_NE USA_R64_SE USA_R64_SW USA_R64_NW USA_POCI USA_ROCI USA_RMW USA_EYE TOKYO_LAT TOKYO_LON TOKYO_GRADE TOKYO_WIND TOKYO_PRES TOKYO_R50_DIR TOKYO_R50_LONG TOKYO_R50_SHORT TOKYO_R30_DIR TOKYO_R30_LONG TOKYO_R30_SHORT TOKYO_LAND CMA_LAT CMA_LON CMA_CAT CMA_WIND CMA_PRES HKO_LAT HKO_LON HKO_CAT HKO_WIND HKO_PRES NEWDELHI_LAT NEWDELHI_LON NEWDELHI_GRADE NEWDELHI_WIND NEWDELHI_PRES NEWDELHI_CI NEWDELHI_DP NEWDELHI_POCI REUNION_LAT REUNION_LON REUNION_TYPE REUNION_WIND REUNION_PRES REUNION_TNUM REUNION_CI REUNION_RMW REUNION_R34_NE REUNION_R34_SE REUNION_R34_SW REUNION_R34_NW REUNION_R50_NE REUNION_R50_SE REUNION_R50_SW REUNION_R50_NW REUNION_R64_NE REUNION_R64_SE REUNION_R64_SW REUNION_R64_NW BOM_LAT BOM_LON BOM_TYPE BOM_WIND BOM_PRES BOM_TNUM BOM_CI BOM_RMW BOM_R34_NE BOM_R34_SE BOM_R34_SW BOM_R34_NW BOM_R50_NE BOM_R50_SE BOM_R50_SW BOM_R50_NW BOM_R64_NE BOM_R64_SE BOM_R64_SW BOM_R64_NW BOM_ROCI BOM_POCI BOM_EYE BOM_POS_METHOD BOM_PRES_METHOD NADI_LAT NADI_LON NADI_CAT NADI_WIND NADI_PRES WELLINGTON_LAT WELLINGTON_LON WELLINGTON_WIND WELLINGTON_PRES DS824_LAT DS824_LON DS824_STAGE DS824_WIND DS824_PRES TD9636_LAT TD9636_LON TD9636_STAGE TD9636_WIND TD9636_PRES TD9635_LAT TD9635_LON TD9635_WIND TD9635_PRES TD9635_ROCI NEUMANN_LAT NEUMANN_LON NEUMANN_CLASS NEUMANN_WIND NEUMANN_PRES MLC_LAT MLC_LON MLC_CLASS MLC_WIND MLC_PRES USA_GUST BOM_GUST BOM_GUST_PER REUNION_GUST REUNION_GUST_PER USA_SEAHGT USA_SEARAD_NE USA_SEARAD_SE USA_SEARAD_SW USA_SEARAD_NW STORM_SPEED STORM_DIR
1987336N10085 1987 99 NI BB NOT_NAMED 1987-12-02 00:00:00 NR 9.90000 84.8000 main 409 394 O_________O___ jtwc_io IO071987 9.90000 84.8000 15 -1 9.90000 84.8000 1 15 4 297
1987336N10085 1987 99 NI BB NOT_NAMED 1987-12-02 03:00:00 NR 10.0019 84.5974 main 394 380 P_________P___ IO071987 9.99752 84.6025 15 -1 10.0064 84.5923 1 15 5 297
1987336N10085 1987 99 NI BB NOT_NAMED 1987-12-02 06:00:00 NR 10.1051 84.3938 main 380 367 O_________P___ jtwc_io IO071987 10.1000 84.4000 15 -1 10.1101 84.3876 1 15 5 297
1987336N10085 1987 99 NI BB NOT_NAMED 1987-12-02 09:00:00 NR 10.2082 84.1908 main 367 355 P_________P___ IO071987 10.2075 84.1925 15 -1 10.2088 84.1891 1 15 4 297
1987336N10085 1987 99 NI BB NOT_NAMED 1987-12-02 12:00:00 NR 10.3000 84.0000 main 355 343 O_________O___ jtwc_io IO071987 10.3000 84.0000 15 -1 10.3000 84.0000 1 15 4 294
1987336N10085 1987 99 NI BB NOT_NAMED 1987-12-02 15:00:00 NR 10.3660 83.8359 main 343 333 P_________P___ IO071987 10.3500 83.8500 17 -1 10.3821 83.8218 1 16 3 292
1987336N10085 1987 99 NI BB NOT_NAMED 1987-12-02 18:00:00 NR 10.4287 83.6750 main 333 323 O_________P___ jtwc_io IO071987 10.4000 83.7000 20 -1 10.4574 83.6499 1 17 4 294
1987336N10085 1987 99 NI BB NOT_NAMED 1987-12-02 21:00:00 NR 10.5145 83.4928 main 323 310 P_________P___ IO071987 10.5000 83.5075 20 -1 10.5290 83.4781 1 18 4 295
1987336N10085 1987 99 NI BB NOT_NAMED 1987-12-03 00:00:00 NR 10.6000 83.3000 main 310 296 O_________O___ jtwc_io IO071987 10.6000 83.3000 20 -1 10.6000 83.3000 1 20 4 292
1987336N10085 1987 99 NI BB NOT_NAMED 1987-12-03 03:00:00 NR 10.6665 83.1076 main 296 278 P_________P___ IO071987 10.6500 83.1000 20 -1 10.6831 83.1153 1 20 4 289
1987336N10085 1987 99 NI BB NOT_NAMED 1987-12-03 06:00:00 NR 10.7325 82.9113 main 278 267 O_________P___ jtwc_io IO071987 10.7000 82.9000 20 -1 10.7649 82.9225 1 20 4 292
1987336N10085 1987 99 NI BB NOT_NAMED 1987-12-03 09:00:00 NR 10.8196 82.7205 main 267 258 P_________P___ IO071987 10.7999 82.7225 20 -1 10.8393 82.7185 1 20 4 293
1987336N10085 1987 99 NI BB NOT_NAMED 1987-12-03 12:00:00 NR 10.9000 82.5000 main 258 243 O_________O___ jtwc_io IO071987 10.9000 82.5000 20 -1 10.9000 82.5000 1 20 5 285
1987336N10085 1987 99 NI BB NOT_NAMED 1987-12-03 15:00:00 NR 10.9583 82.2035 main 244 218 P_________P___ IO071987 10.9651 82.1425 22 -1 10.9516 82.2644 1 22 6 279
1987336N10085 1987 99 NI BB NOT_NAMED 1987-12-03 18:00:00 NR 10.9937 81.9075 main 218 196 O_________P___ jtwc_io IO071987 11.0000 81.8000 25 -1 10.9875 82.0150 1 25 5 275
1987336N10085 1987 99 NI BB NOT_NAMED 1987-12-03 21:00:00 NR 11.0060 81.6966 main 196 174 P_________P___ IO071987 11.0074 81.6350 27 -1 11.0047 81.7582 1 27 4 271
1987336N10085 1987 99 NI BB NOT_NAMED 1987-12-04 00:00:00 NR 11.0000 81.5000 main 174 152 O_________O___ jtwc_io IO071987 11.0000 81.5000 30 -1 11.0000 81.5000 1 30 4 269
1987336N10085 1987 99 NI BB NOT_NAMED 1987-12-04 03:00:00 NR 10.9973 81.2575 main 152 120 P_________P___ IO071987 11.0150 81.2650 30 -1 10.9796 81.2500 1 30 5 266
1987336N10085 1987 99 NI BB NOT_NAMED 1987-12-04 06:00:00 NR 10.9687 81.0000 main 120 98 O_________P___ jtwc_io IO071987 11.0000 81.0000 30 -1 10.9374 81.0000 1 30 5 258
1987336N10085 1987 99 NI BB NOT_NAMED 1987-12-04 09:00:00 NR 10.8920 80.7500 main 98 65 P_________P___ IO071987 10.9075 80.7500 30 -1 10.8765 80.7500 1 30 5 251
1987336N10085 1987 99 NI BB NOT_NAMED 1987-12-04 12:00:00 NR 10.8000 80.5000 main 65 43 O_________O___ jtwc_io IO071987 10.8000 80.5000 30 -1 10.8000 80.5000 1 30 5 253
1987336N10085 1987 99 NI BB NOT_NAMED 1987-12-04 15:00:00 NR 10.7420 80.2501 main 43 10 P_________P___ IO071987 10.7575 80.2501 30 -1 10.7265 80.2501 1 28 5 255
1987336N10085 1987 99 NI BB NOT_NAMED 1987-12-04 18:00:00 NR 10.6687 80.0000 main 10 0 O_________P___ jtwc_io IO071987 10.7000 80.0000 30 -1 10.6374 80.0001 1 27 5 248
1987336N10085 1987 99 NI BB NOT_NAMED 1987-12-04 21:00:00 NR 10.5473 79.7500 main 0 0 P_________P___ IO071987 10.5650 79.7500 27 -1 10.5296 79.7501 1 26 6 241
1987336N10085 1987 99 NI BB NOT_NAMED 1987-12-05 00:00:00 NR 10.4000 79.5000 main 0 0 O_________O___ jtwc_io IO071987 10.4000 79.5000 25 -1 10.4000 79.5000 1 25 6 239
1987336N10085 1987 99 NI BB NOT_NAMED 1987-12-05 03:00:00 NR 10.2500 79.2520 main 10 0 P_________P___ IO071987 10.2575 79.2500 25 -1 10.2424 79.2541 1 23 6 237
1987336N10085 1987 99 NI BB NOT_NAMED 1987-12-05 06:00:00 NR 10.0824 79.0037 main 0 0 O_________P___ jtwc_io IO071987 10.1000 79.0000 25 -1 10.0649 79.0075 1 22 6 234
1987336N10085 1987 99 NI BB NOT_NAMED 1987-12-05 09:00:00 NR 9.88995 78.7536 main 0 0 P_________P___ IO071987 9.89998 78.7500 22 -1 9.87992 78.7572 1 21 6 232
1987336N10085 1987 99 NI BB NOT_NAMED 1987-12-05 12:00:00 NR 9.70000 78.5000 main 0 0 O_________O___ jtwc_io IO071987 9.70000 78.5000 20 -1 9.70000 78.5000 1 20 6 235
1987336N10085 1987 99 NI BB NOT_NAMED 1987-12-05 15:00:00 NR 9.54054 78.2530 main 0 0 P_________P___ IO071987 9.54246 78.2575 17 -1 9.53861 78.2485 1 18 6 238
1987336N10085 1987 99 NI AS NOT_NAMED 1987-12-05 18:00:00 NR 9.39240 77.9938 main 0 0 O_________P___ jtwc_io IO071987 9.40000 78.0000 15 -1 9.38479 77.9876 1 17 6 241
1987336N10085 1987 99 NI AS NOT_NAMED 1987-12-05 21:00:00 NR 9.24804 77.7077 main 0 0 P_________P___ IO071987 9.25749 77.7075 15 -1 9.23858 77.7079 1 16 7 243
1987336N10085 1987 99 NI AS NOT_NAMED 1987-12-06 00:00:00 NR 9.10000 77.4000 main 0 0 O_________O___ jtwc_io IO071987 9.10000 77.4000 15 -1 9.10000 77.4000 1 15 7 241
1987336N10085 1987 99 NI AS NOT_NAMED 1987-12-06 03:00:00 NR 8.91008 77.0941 main 0 0 P_________P___ IO071987 8.88491 77.1225 15 -1 8.93524 77.0658 1 16 7 241
1987336N10085 1987 99 NI AS NOT_NAMED 1987-12-06 06:00:00 NR 8.74119 76.7511 main 0 0 O_________P___ jtwc_io IO071987 8.70000 76.8000 15 -1 8.78237 76.7022 1 17 8 250
1987336N10085 1987 99 NI AS NOT_NAMED 1987-12-06 09:00:00 NR 8.63790 76.3463 main 39 39 P_________P___ IO071987 8.61249 76.3800 17 -1 8.66332 76.3125 1 18 9 260
1987336N10085 1987 99 NI AS NOT_NAMED 1987-12-06 12:00:00 NR 8.60000 75.9000 main 74 74 O_________O___ jtwc_io IO071987 8.60000 75.9000 20 -1 8.60000 75.9000 1 20 9 269
1987336N10085 1987 99 NI AS NOT_NAMED 1987-12-06 15:00:00 NR 8.61444 75.4220 main 125 125 P_________P___ IO071987 8.62752 75.3925 20 -1 8.60137 75.4514 1 20 10 275
1987336N10085 1987 99 NI AS NOT_NAMED 1987-12-06 18:00:00 NR 8.68009 74.9426 main 172 172 O_________P___ jtwc_io IO071987 8.70000 74.9000 20 -1 8.66018 74.9852 1 20 9 280
1987336N10085 1987 99 NI AS NOT_NAMED 1987-12-06 21:00:00 NR 8.77065 74.5019 main 208 208 P_________P___ IO071987 8.77743 74.4775 20 -1 8.76388 74.5264 1 20 9 285
1987336N10085 1987 99 NI AS NOT_NAMED 1987-12-07 00:00:00 NR 8.90000 74.1000 main 248 248 O_________O___ jtwc_io IO071987 8.90000 74.1000 20 -1 8.90000 74.1000 1 20 8 292
1987336N10085 1987 99 NI AS NOT_NAMED 1987-12-07 03:00:00 NR 9.07129 73.7310 main 287 287 P_________P___ IO071987 9.09246 73.7350 20 -1 9.05011 73.7270 1 21 8 298
1987336N10085 1987 99 NI AS NOT_NAMED 1987-12-07 06:00:00 NR 9.26363 73.3951 main 317 317 O_________P___ jtwc_io IO071987 9.30000 73.4000 20 -1 9.22727 73.3901 1 22 7 300
1987336N10085 1987 99 NI AS NOT_NAMED 1987-12-07 09:00:00 NR 9.43663 73.0841 main 344 339 P_________P___ IO071987 9.45747 73.0850 22 -1 9.41579 73.0832 1 23 7 300
1987336N10085 1987 99 NI AS NOT_NAMED 1987-12-07 12:00:00 NR 9.60000 72.8000 main 365 365 O_________O___ jtwc_io IO071987 9.60000 72.8000 25 -1 9.60000 72.8000 1 25 6 300
1987336N10085 1987 99 NI AS NOT_NAMED 1987-12-07 15:00:00 NR 9.75146 72.5374 main 384 384 P_________P___ IO071987 9.74996 72.5425 25 -1 9.75296 72.5323 1 26 6 301
1987336N10085 1987 99 NI AS NOT_NAMED 1987-12-07 18:00:00 NR 9.89989 72.2924 main 394 394 O_________P___ jtwc_io IO071987 9.90000 72.3000 25 -1 9.89978 72.2848 1 27 6 302
1987336N10085 1987 99 NI AS NOT_NAMED 1987-12-07 21:00:00 NR 10.0483 72.0511 main 405 405 P_________P___ IO071987 10.0500 72.0575 27 -1 10.0467 72.0448 1 28 6 302
1987336N10085 1987 99 NI AS NOT_NAMED 1987-12-08 00:00:00 NR 10.2000 71.8000 main 422 422 O_________O___ jtwc_io IO071987 10.2000 71.8000 30 -1 10.2000 71.8000 1 30 6 300
1987336N10085 1987 99 NI AS NOT_NAMED 1987-12-08 03:00:00 NR 10.3552 71.5080 main 441 441 P_________P___ IO071987 10.3425 71.5000 30 -1 10.3679 71.5160 1 31 7 299
1987336N10085 1987 99 NI AS NOT_NAMED 1987-12-08 06:00:00 NR 10.5213 71.2138 main 465 460 O_________P___ jtwc_io IO071987 10.5000 71.2000 30 -1 10.5426 71.2275 1 32 7 303
1987336N10085 1987 99 NI AS NOT_NAMED 1987-12-08 09:00:00 NR 10.7105 70.9427 main 485 480 P_________P___ IO071987 10.7000 70.9350 32 -1 10.7210 70.9503 1 33 6 307
1987336N10085 1987 99 NI AS NOT_NAMED 1987-12-08 12:00:00 NR 10.9000 70.7000 main 494 494 O_________O___ jtwc_io IO071987 10.9000 70.7000 35 0 10.9000 70.7000 2 35 6 307
1987336N10085 1987 99 NI AS NOT_NAMED 1987-12-08 15:00:00 NR 11.0564 70.4764 main 505 505 P_________P___ IO071987 11.0500 70.4850 35 0 11.0628 70.4678 2 35 5 307
1987336N10085 1987 99 NI AS NOT_NAMED 1987-12-08 18:00:00 NR 11.2137 70.2838 main 521 521 O_________P___ jtwc_io IO071987 11.2000 70.3000 35 0 11.2274 70.2675 2 35 5 314
1987336N10085 1987 99 NI AS NOT_NAMED 1987-12-08 21:00:00 NR 11.3980 70.1180 main 534 531 P_________P___ IO071987 11.3925 70.1275 35 0 11.4034 70.1085 2 35 5 324
1987336N10085 1987 99 NI AS NOT_NAMED 1987-12-09 00:00:00 NR 11.6000 70.0000 main 539 536 O_________O___ jtwc_io IO071987 11.6000 70.0000 35 0 11.6000 70.0000 2 35 4 335
1987336N10085 1987 99 NI AS NOT_NAMED 1987-12-09 03:00:00 NR 11.8006 69.9287 main 544 539 P_________P___ IO071987 11.7850 69.9200 35 0 11.8162 69.9374 2 35 4 348
1987336N10085 1987 99 NI AS NOT_NAMED 1987-12-09 06:00:00 NR 12.0275 69.9125 main 539 532 O_________P___ jtwc_io IO071987 12.0000 69.9000 35 0 12.0549 69.9250 2 35 5 0
1987336N10085 1987 99 NI AS NOT_NAMED 1987-12-09 09:00:00 NR 12.2969 69.9425 main 532 505 P_________P___ IO071987 12.2775 69.9350 35 0 12.3162 69.9500 2 35 6 8
1987336N10085 1987 99 NI AS NOT_NAMED 1987-12-09 12:00:00 NR 12.6000 70.0000 main 505 487 O_________O___ jtwc_io IO071987 12.6000 70.0000 35 0 12.6000 70.0000 2 35 7 9
1987336N10085 1987 99 NI AS NOT_NAMED 1987-12-09 15:00:00 NR 12.9369 70.0399 main 487 456 P_________P___ IO071987 12.9500 70.0425 37 0 12.9237 70.0372 2 36 7 8
1987336N10085 1987 99 NI AS NOT_NAMED 1987-12-09 18:00:00 NR 13.2825 70.0988 main 456 432 O_________P___ jtwc_io IO071987 13.3000 70.1000 40 0 13.2649 70.0975 2 37 7 12
1987336N10085 1987 99 NI AS NOT_NAMED 1987-12-09 21:00:00 NR 13.6106 70.1845 main 432 410 P_________P___ IO071987 13.6225 70.1850 40 0 13.5987 70.1841 2 38 7 18
1987336N10085 1987 99 NI AS NOT_NAMED 1987-12-10 00:00:00 NR 13.9000 70.3000 main 410 392 O_________O___ jtwc_io IO071987 13.9000 70.3000 40 0 13.9000 70.3000 2 40 6 26
1987336N10085 1987 99 NI AS NOT_NAMED 1987-12-10 03:00:00 NR 14.1275 70.4427 main 392 363 P_________P___ IO071987 14.1150 70.4351 42 0 14.1400 70.4503 2 41 5 36
1987336N10085 1987 99 NI AS NOT_NAMED 1987-12-10 06:00:00 NR 14.3225 70.6137 main 363 334 O_________P___ jtwc_io IO071987 14.3000 70.6000 45 0 14.3451 70.6275 2 42 5 42
1987336N10085 1987 99 NI AS NOT_NAMED 1987-12-10 09:00:00 NR 14.5175 70.8080 main 334 306 P_________P___ IO071987 14.5075 70.8000 45 0 14.5275 70.8159 2 43 5 45
1987336N10085 1987 99 NI AS NOT_NAMED 1987-12-10 12:00:00 NR 14.7000 71.0000 main 306 289 O_________O___ jtwc_io IO071987 14.7000 71.0000 45 0 14.7000 71.0000 2 45 5 44
1987336N10085 1987 99 NI AS NOT_NAMED 1987-12-10 15:00:00 NR 14.8600 71.1555 main 279 265 P_________P___ IO071987 14.8500 71.1576 45 0 14.8699 71.1533 2 43 4 42
1987336N10085 1987 99 NI AS NOT_NAMED 1987-12-10 18:00:00 NR 15.0175 71.3002 main 265 246 O_________P___ jtwc_io IO071987 15.0000 71.3000 45 0 15.0349 71.3003 2 42 4 40
1987336N10085 1987 99 NI AS NOT_NAMED 1987-12-10 21:00:00 NR 15.1962 71.4486 main 246 217 P_________P___ IO071987 15.1850 71.4500 42 0 15.2074 71.4471 2 41 5 37
1987336N10085 1987 99 NI AS NOT_NAMED 1987-12-11 00:00:00 NR 15.4000 71.6000 main 217 198 O_________O___ jtwc_io IO071987 15.4000 71.6000 40 0 15.4000 71.6000 2 40 5 34
1987336N10085 1987 99 NI AS NOT_NAMED 1987-12-11 03:00:00 NR 15.6334 71.7512 main 189 163 P_________P___ IO071987 15.6425 71.7425 37 0 15.6243 71.7598 2 38 6 32
1987336N10085 1987 99 NI AS NOT_NAMED 1987-12-11 06:00:00 NR 15.8850 71.9138 main 163 135 O_________P___ jtwc_io IO071987 15.9000 71.9000 35 0 15.8699 71.9277 2 37 6 33
1987336N10085 1987 99 NI AS NOT_NAMED 1987-12-11 09:00:00 NR 16.1403 72.0996 main 135 107 P_________P___ IO071987 16.1500 72.0925 35 0 16.1305 72.1067 2 36 6 36
1987336N10085 1987 99 NI AS NOT_NAMED 1987-12-11 12:00:00 NR 16.4000 72.3000 main 107 85 O_________O___ jtwc_io IO071987 16.4000 72.3000 35 0 16.4000 72.3000 2 35 6 37
1987336N10085 1987 99 NI AS NOT_NAMED 1987-12-11 15:00:00 NR 16.6429 72.4918 main 85 63 P_________P___ IO071987 16.6425 72.4926 32 -1 16.6433 72.4909 2 33 6 37
1987336N10085 1987 99 NI AS NOT_NAMED 1987-12-11 18:00:00 NR 16.8986 72.6992 main 63 38 O_________P___ jtwc_io IO071987 16.9000 72.7000 30 -1 16.8972 72.6985 2 32 7 38
1987336N10085 1987 99 NI AS NOT_NAMED 1987-12-11 21:00:00 NR 17.1850 72.9371 main 38 0 P_________P___ IO071987 17.1925 72.9425 30 -1 17.1776 72.9317 2 31 8 38
1987336N10085 1987 99 NI AS NOT_NAMED 1987-12-12 00:00:00 NR 17.5000 73.2000 main 0 0 O_________O___ jtwc_io IO071987 17.5000 73.2000 30 -1 17.5000 73.2000 1 30 8 38
1987336N10085 1987 99 NI AS NOT_NAMED 1987-12-12 03:00:00 NR 17.8302 73.4651 main 0 0 P_________P___ IO071987 17.7623 73.4205 25 -1 17.8982 73.5096 1 27 9 37
1987336N10085 1987 99 NI AS NOT_NAMED 1987-12-12 06:00:00 NR 18.2175 73.7773 main 0 0 O_________P___ jtwc_io IO071987 18.1000 73.7000 20 -1 18.3350 73.8545 1 25 11 37
1987336N10085 1987 99 NI AS NOT_NAMED 1987-12-12 09:00:00 NR 18.7148 74.1746 main 0 0 P_________P___ IO071987 18.6501 74.1270 20 -1 18.7794 74.2222 1 22 13 38
1987336N10085 1987 99 NI AS NOT_NAMED 1987-12-12 12:00:00 NR 19.2000 74.6000 main 0 0 O_________O___ jtwc_io IO071987 19.2000 74.6000 20 -1 19.2000 74.6000 1 20 11 43
1987336N10085 1987 99 NI AS NOT_NAMED 1987-12-12 15:00:00 NR 19.5516 74.9963 main 0 0 P_________P___ IO071987 19.5299 75.0155 17 -1 19.5733 74.9771 1 17 10 48
1987336N10085 1987 99 NI AS NOT_NAMED 1987-12-12 18:00:00 NR 19.8527 75.3760 main 0 0 O_________P___ jtwc_io IO071987 19.8000 75.4000 15 -1 19.9054 75.3520 1 15 9 49
1987336N10085 1987 99 NI AS NOT_NAMED 1987-12-12 21:00:00 NR 20.1687 75.7415 main 0 0 P_________P___ IO071987 20.1276 75.7570 12 -1 20.2098 75.7259 1 12 9 46
1987336N10085 1987 99 NI AS NOT_NAMED 1987-12-13 00:00:00 NR 20.5000 76.1000 main 0 O_________O___ jtwc_io IO071987 20.5000 76.1000 10 -1 20.5000 76.1000 1 10 9 45

IBTrACS Databaseについて

本データベースは、米国NOAAが公開する1842年以降の世界の熱帯低気圧のベストトラックデータアーカイブInternational Best Track Archive for Climate Stewardship (IBTrACS)を、ウェブで閲覧しやすい形式に変換したものです。

最終更新日:2021-10-25